createdAt,value
2022-10-23T00:00:31.414Z,101639.78
2022-10-23T00:02:59.508Z,101632.19
2022-10-23T00:05:27.813Z,101622.00
2022-10-23T00:07:55.229Z,101619.69
2022-10-23T00:10:23.107Z,101626.78
2022-10-23T00:12:50.215Z,101615.75
2022-10-23T00:15:19.078Z,101618.59
2022-10-23T00:17:45.843Z,101618.72
2022-10-23T00:20:13.029Z,101633.91
2022-10-23T00:22:39.644Z,101619.44
2022-10-23T00:25:08.305Z,101626.66
2022-10-23T00:27:35.173Z,101628.81
2022-10-23T00:30:02.177Z,101632.47
2022-10-23T00:32:28.922Z,101625.69
2022-10-23T00:34:55.489Z,101625.69
2022-10-23T00:37:21.982Z,101625.88
2022-10-23T00:39:48.510Z,101621.59
2022-10-23T00:42:19.927Z,101621.91
2022-10-23T00:44:46.296Z,101614.00
2022-10-23T00:47:14.050Z,101612.38
2022-10-23T00:49:42.782Z,101609.25
2022-10-23T00:52:12.372Z,101604.66
2022-10-23T00:54:43.477Z,101605.66
2022-10-23T00:57:13.614Z,101610.75
2022-10-23T00:59:42.775Z,101610.91
2022-10-23T01:02:09.934Z,101609.94
2022-10-23T01:04:37.692Z,101603.84
2022-10-23T01:07:24.143Z,101594.94
2022-10-23T01:10:11.502Z,101608.94
2022-10-23T01:12:51.853Z,101608.09
2022-10-23T01:15:42.607Z,101617.34
2022-10-23T01:18:35.577Z,101612.22
2022-10-23T01:21:14.670Z,101606.94
2022-10-23T01:23:47.699Z,101608.78
2022-10-23T01:26:14.070Z,101604.69
2022-10-23T01:29:08.774Z,101602.88
2022-10-23T01:31:39.587Z,101600.22
2022-10-23T01:34:12.913Z,101596.78
2022-10-23T01:36:43.225Z,101595.94
2022-10-23T01:39:19.101Z,101591.84
2022-10-23T01:42:03.845Z,101589.22
2022-10-23T01:44:41.882Z,101588.53
2022-10-23T01:47:11.304Z,101586.72
2022-10-23T01:49:41.891Z,101582.47
2022-10-23T01:52:12.942Z,101574.75
2022-10-23T01:54:44.098Z,101581.97
2022-10-23T01:57:15.014Z,101576.22
2022-10-23T01:59:50.437Z,101577.53
2022-10-23T02:02:19.051Z,101575.72
2022-10-23T02:05:04.426Z,101572.47
2022-10-23T02:07:31.261Z,101563.06
2022-10-23T02:09:58.420Z,101557.97
2022-10-23T02:12:36.994Z,101555.31
2022-10-23T02:15:12.284Z,101552.69
2022-10-23T02:17:51.267Z,101552.06
2022-10-23T02:20:41.030Z,101546.31
2022-10-23T02:23:15.065Z,101542.97
2022-10-23T02:25:57.115Z,101543.97
2022-10-23T02:28:30.396Z,101545.97
2022-10-23T02:30:59.546Z,101534.78
2022-10-23T02:33:28.712Z,101527.19
2022-10-23T02:35:55.179Z,101523.94
2022-10-23T02:38:48.042Z,101525.56
2022-10-23T02:41:20.658Z,101507.13
2022-10-23T02:44:07.623Z,101510.59
2022-10-23T02:46:42.977Z,101520.63
2022-10-23T02:49:35.757Z,101521.63
2022-10-23T02:52:26.311Z,101521.78
2022-10-23T02:55:14.385Z,101516.69
2022-10-23T02:57:59.709Z,101522.97
2022-10-23T03:00:29.901Z,101518.03
2022-10-23T03:03:00.699Z,101516.38
2022-10-23T03:05:38.876Z,101514.56
2022-10-23T03:08:09.024Z,101509.78
2022-10-23T03:10:35.689Z,101508.00
2022-10-23T03:13:02.192Z,101495.31
2022-10-23T03:15:28.724Z,101499.59
2022-10-23T03:17:55.474Z,101497.13
2022-10-23T03:20:22.409Z,101493.50
2022-10-23T03:22:48.828Z,101489.06
2022-10-23T03:25:15.387Z,101482.16
2022-10-23T03:27:41.876Z,101487.44
2022-10-23T03:30:09.219Z,101490.22
2022-10-23T03:32:35.768Z,101478.88
2022-10-23T03:35:02.258Z,101476.41
2022-10-23T03:37:28.758Z,101482.66
2022-10-23T03:39:55.279Z,101475.75
2022-10-23T03:42:21.769Z,101469.50
2022-10-23T03:44:48.217Z,101459.97
2022-10-23T03:47:14.767Z,101462.78
2022-10-23T03:49:41.208Z,101467.03
2022-10-23T03:52:08.598Z,101466.03
2022-10-23T03:54:35.479Z,101459.16
2022-10-23T03:57:01.988Z,101456.50
2022-10-23T03:59:28.906Z,101446.00
2022-10-23T04:01:55.546Z,101452.25
2022-10-23T04:04:22.056Z,101444.50
2022-10-23T04:06:48.525Z,101431.34
2022-10-23T04:09:15.320Z,101421.00
2022-10-23T04:11:41.738Z,101422.81
2022-10-23T04:14:08.252Z,101417.38
2022-10-23T04:16:34.703Z,101414.75
2022-10-23T04:19:01.199Z,101420.19
2022-10-23T04:21:27.624Z,101422.81
2022-10-23T04:23:54.146Z,101406.22
2022-10-23T04:26:20.716Z,101406.84
2022-10-23T04:28:47.240Z,101404.03
2022-10-23T04:31:13.707Z,101400.25
2022-10-23T04:33:40.165Z,101399.63
2022-10-23T04:36:07.009Z,101392.88
2022-10-23T04:38:33.512Z,101398.13
2022-10-23T04:41:00.019Z,101386.78
2022-10-23T04:43:26.487Z,101385.97
2022-10-23T04:45:52.967Z,101384.31
2022-10-23T04:48:19.471Z,101386.94
2022-10-23T04:50:58.572Z,101384.31
2022-10-23T04:53:25.984Z,101386.78
2022-10-23T04:55:53.734Z,101384.16
2022-10-23T04:58:20.973Z,101382.16
2022-10-23T05:00:48.325Z,101377.72
2022-10-23T05:03:15.672Z,101378.56
2022-10-23T05:05:42.659Z,101367.03
2022-10-23T05:08:09.325Z,101378.06
2022-10-23T05:10:35.888Z,101376.41
2022-10-23T05:13:03.634Z,101369.34
2022-10-23T05:15:30.601Z,101368.00
2022-10-23T05:18:11.021Z,101368.63
2022-10-23T05:20:39.544Z,101367.00
2022-10-23T05:23:10.505Z,101354.66
2022-10-23T05:25:37.384Z,101366.47
2022-10-23T05:28:04.106Z,101368.78
2022-10-23T05:30:33.070Z,101367.97
2022-10-23T05:33:01.559Z,101372.06
2022-10-23T05:35:29.943Z,101368.44
2022-10-23T05:37:57.676Z,101365.47
2022-10-23T05:40:24.623Z,101365.94
2022-10-23T05:42:51.250Z,101358.38
2022-10-23T05:45:17.703Z,101365.13
2022-10-23T05:47:45.751Z,101363.78
2022-10-23T05:50:12.588Z,101355.88
2022-10-23T05:52:39.066Z,101366.88
2022-10-23T05:55:05.913Z,101367.34
2022-10-23T05:57:33.965Z,101355.81
2022-10-23T06:00:00.525Z,101358.75
2022-10-23T06:02:27.168Z,101354.13
2022-10-23T06:04:53.636Z,101348.69
2022-10-23T06:07:25.547Z,101336.16
2022-10-23T06:09:52.963Z,101351.16
2022-10-23T06:12:22.969Z,101348.31
2022-10-23T06:14:49.788Z,101346.53
2022-10-23T06:17:16.292Z,101340.28
2022-10-23T06:19:44.222Z,101338.25
2022-10-23T06:22:10.796Z,101330.56
2022-10-23T06:24:37.295Z,101325.94
2022-10-23T06:27:03.993Z,101324.75
2022-10-23T06:29:30.538Z,101311.56
2022-10-23T06:31:56.998Z,101316.31
2022-10-23T06:34:23.540Z,101323.25
2022-10-23T06:36:50.072Z,101314.69
2022-10-23T06:39:16.610Z,101316.16
2022-10-23T06:41:44.352Z,101310.88
2022-10-23T06:44:11.364Z,101307.25
2022-10-23T06:46:37.834Z,101307.91
2022-10-23T06:49:04.390Z,101307.09
2022-10-23T06:51:30.900Z,101310.19
2022-10-23T06:53:57.566Z,101299.47
2022-10-23T06:56:29.061Z,101301.56
2022-10-23T06:58:56.035Z,101296.59
2022-10-23T07:01:22.809Z,101281.25
2022-10-23T07:03:49.468Z,101292.88
2022-10-23T07:06:16.071Z,101288.72
2022-10-23T07:08:42.500Z,101279.59
2022-10-23T07:11:11.278Z,101279.91
2022-10-23T07:13:38.840Z,101285.44
2022-10-23T07:16:17.879Z,101292.00
2022-10-23T07:18:44.817Z,101292.66
2022-10-23T07:21:11.575Z,101291.44
2022-10-23T07:23:38.573Z,101298.84
2022-10-23T07:26:10.679Z,101287.75
2022-10-23T07:28:37.775Z,101287.84
2022-10-23T07:31:04.442Z,101288.09
2022-10-23T07:33:30.898Z,101287.53
2022-10-23T07:35:57.364Z,101288.47
2022-10-23T07:38:23.952Z,101276.38
2022-10-23T07:40:50.480Z,101279.25
2022-10-23T07:43:18.513Z,101274.44
2022-10-23T07:45:48.493Z,101269.06
2022-10-23T07:48:15.091Z,101274.41
2022-10-23T07:50:41.741Z,101266.81
2022-10-23T07:53:16.465Z,101262.78
2022-10-23T07:55:42.901Z,101265.06
2022-10-23T07:58:09.468Z,101267.13
2022-10-23T08:00:38.774Z,101261.50
2022-10-23T08:03:05.289Z,101257.28
2022-10-23T08:05:31.793Z,101256.69
2022-10-23T08:07:58.214Z,101254.34
2022-10-23T08:10:24.777Z,101255.84
2022-10-23T08:12:51.262Z,101244.91
2022-10-23T08:15:17.763Z,101252.88
2022-10-23T08:17:44.465Z,101251.94
2022-10-23T08:20:13.577Z,101247.53
2022-10-23T08:22:40.198Z,101249.22
2022-10-23T08:25:06.999Z,101247.81
2022-10-23T08:27:33.536Z,101241.78
2022-10-23T08:30:00.042Z,101247.50
2022-10-23T08:32:30.310Z,101244.50
2022-10-23T08:34:56.799Z,101242.28
2022-10-23T08:37:24.012Z,101235.59
2022-10-23T08:39:52.653Z,101230.75
2022-10-23T08:42:27.481Z,101229.13
2022-10-23T08:44:57.218Z,101212.06
2022-10-23T08:47:34.845Z,101206.19
2022-10-23T08:50:34.790Z,101202.78
2022-10-23T08:53:23.829Z,101210.34
2022-10-23T08:55:59.428Z,101193.66
2022-10-23T08:58:35.582Z,101188.78
2022-10-23T09:01:18.016Z,101193.53
2022-10-23T09:03:44.604Z,101195.22
2022-10-23T09:06:42.128Z,101197.06
2022-10-23T09:09:14.802Z,101189.97
2022-10-23T09:12:04.973Z,101184.31
2022-10-23T09:15:08.057Z,101182.09
2022-10-23T09:17:41.408Z,101178.84
2022-10-23T09:20:31.581Z,101177.84
2022-10-23T09:23:02.346Z,101169.72
2022-10-23T09:25:37.864Z,101170.75
2022-10-23T09:28:05.723Z,101161.56
2022-10-23T09:30:34.152Z,101164.03
2022-10-23T09:33:12.276Z,101161.41
2022-10-23T09:35:38.832Z,101164.22
2022-10-23T09:38:05.291Z,101165.25
2022-10-23T09:40:40.448Z,101167.47
2022-10-23T09:43:21.791Z,101167.88
2022-10-23T09:45:57.751Z,101157.69
2022-10-23T09:48:24.267Z,101148.13
2022-10-23T09:50:59.903Z,101143.84
2022-10-23T09:53:29.253Z,101150.16
2022-10-23T09:55:58.927Z,101140.56
2022-10-23T09:58:40.261Z,101129.81
2022-10-23T10:01:06.863Z,101130.41
2022-10-23T10:03:33.408Z,101138.56
2022-10-23T10:06:03.008Z,101137.34
2022-10-23T10:08:39.317Z,101124.91
2022-10-23T10:11:38.592Z,101126.53
2022-10-23T10:14:17.395Z,101127.56
2022-10-23T10:16:51.835Z,101123.28
2022-10-23T10:20:10.846Z,101115.16
2022-10-23T10:22:52.930Z,101113.50
2022-10-23T10:25:40.409Z,101106.78
2022-10-23T10:28:44.532Z,101104.53
2022-10-23T10:31:18.380Z,101100.66
2022-10-23T10:33:55.822Z,101091.50
2022-10-23T10:36:34.475Z,101083.94
2022-10-23T10:39:03.963Z,101067.81
2022-10-23T10:41:52.281Z,101070.88
2022-10-23T10:44:34.051Z,101061.72
2022-10-23T10:47:25.642Z,101059.47
2022-10-23T10:49:59.683Z,101058.22
2022-10-23T10:52:52.096Z,101048.84
2022-10-23T10:55:30.720Z,101025.81
2022-10-23T10:58:12.947Z,101022.13
2022-10-23T11:00:39.432Z,101010.50
2022-10-23T11:03:09.047Z,101010.88
2022-10-23T11:05:43.004Z,101003.31
2022-10-23T11:08:15.181Z,101009.81
2022-10-23T11:10:45.769Z,101014.72
2022-10-23T11:13:27.447Z,101010.19
2022-10-23T11:15:59.149Z,101009.34
2022-10-23T11:18:29.318Z,101000.75
2022-10-23T11:21:17.317Z,100997.69
2022-10-23T11:24:05.622Z,101000.53
2022-10-23T11:27:12.534Z,101004.22
2022-10-23T11:29:46.532Z,100988.69
2022-10-23T11:32:47.447Z,100982.69
2022-10-23T11:35:32.508Z,100977.91
2022-10-23T11:38:24.067Z,100966.78
2022-10-23T11:40:54.775Z,100952.34
2022-10-23T11:43:33.430Z,100960.00
2022-10-23T11:46:13.309Z,100953.75
2022-10-23T11:48:42.771Z,100945.06
2022-10-23T11:51:36.059Z,100931.25
2022-10-23T11:54:24.474Z,100930.28
2022-10-23T11:57:13.337Z,100943.88
2022-10-23T11:59:45.611Z,100931.63
2022-10-23T12:02:28.013Z,100930.28
2022-10-23T12:04:55.534Z,100919.56
2022-10-23T12:07:27.451Z,100909.28
2022-10-23T12:10:12.494Z,100922.50
2022-10-23T12:12:40.972Z,100931.84
2022-10-23T12:15:11.833Z,100918.34
2022-10-23T12:17:40.099Z,100919.28
2022-10-23T12:20:12.815Z,100905.19
2022-10-23T12:23:02.833Z,100908.44
2022-10-23T12:26:01.362Z,100895.69
2022-10-23T12:28:27.740Z,100892.03
2022-10-23T12:31:13.098Z,100881.28
2022-10-23T12:34:01.586Z,100869.75
2022-10-23T12:36:40.705Z,100877.28
2022-10-23T12:39:26.847Z,100875.69
2022-10-23T12:41:53.846Z,100866.88
2022-10-23T12:44:20.912Z,100869.19
2022-10-23T12:46:50.062Z,100862.00
2022-10-23T12:49:22.291Z,100857.06
2022-10-23T12:51:59.108Z,100860.06
2022-10-23T12:54:27.022Z,100852.66
2022-10-23T12:56:53.518Z,100850.13
2022-10-23T12:59:26.520Z,100847.31
2022-10-23T13:01:54.624Z,100844.66
2022-10-23T13:04:36.536Z,100830.09
2022-10-23T13:07:03.988Z,100818.19
2022-10-23T13:09:38.566Z,100817.97
2022-10-23T13:12:07.339Z,100808.72
2022-10-23T13:14:38.213Z,100814.59
2022-10-23T13:17:10.664Z,100811.47
2022-10-23T13:19:37.619Z,100803.84
2022-10-23T13:22:16.527Z,100807.09
2022-10-23T13:24:43.793Z,100799.56
2022-10-23T13:27:33.276Z,100797.72
2022-10-23T13:30:00.327Z,100790.28
2022-10-23T13:32:30.172Z,100779.09
2022-10-23T13:35:20.969Z,100771.44
2022-10-23T13:37:49.148Z,100760.56
2022-10-23T13:40:27.367Z,100754.06
2022-10-23T13:42:55.832Z,100749.34
2022-10-23T13:45:25.062Z,100745.41
2022-10-23T13:47:51.794Z,100736.47
2022-10-23T13:50:19.014Z,100739.47
2022-10-23T13:52:45.487Z,100732.28
2022-10-23T13:55:33.588Z,100720.38
2022-10-23T13:58:00.042Z,100711.56
2022-10-23T14:00:26.525Z,100713.44
2022-10-23T14:05:19.576Z,100710.97
2022-10-23T14:07:46.289Z,100714.16
2022-10-23T14:10:12.940Z,100713.31
2022-10-23T14:12:43.759Z,100711.13
2022-10-23T14:15:11.594Z,100708.34
2022-10-23T14:17:38.272Z,100708.59
2022-10-23T14:20:06.513Z,100703.03
2022-10-23T14:22:33.262Z,100697.25
2022-10-23T14:24:59.719Z,100684.75
2022-10-23T14:27:26.180Z,100692.00
2022-10-23T14:29:52.941Z,100683.34
2022-10-23T14:32:19.441Z,100698.34
2022-10-23T14:34:51.076Z,100694.81
2022-10-23T14:37:18.422Z,100698.03
2022-10-23T14:39:49.723Z,100696.91
2022-10-23T14:42:16.899Z,100695.75
2022-10-23T14:44:43.580Z,100693.81
2022-10-23T14:47:10.172Z,100688.03
2022-10-23T14:49:36.731Z,100694.31
2022-10-23T14:52:03.334Z,100699.78
2022-10-23T14:54:31.290Z,100686.34
2022-10-23T14:56:57.758Z,100694.03
2022-10-23T14:59:24.336Z,100689.16
2022-10-23T15:01:50.983Z,100688.34
2022-10-23T15:04:17.698Z,100684.31
2022-10-23T15:06:46.262Z,100667.53
2022-10-23T15:09:13.609Z,100671.22
2022-10-23T15:11:40.126Z,100658.63
2022-10-23T15:14:06.777Z,100651.09
2022-10-23T15:16:33.576Z,100656.34
2022-10-23T15:19:00.082Z,100660.97
2022-10-23T15:21:26.580Z,100654.75
2022-10-23T15:23:54.791Z,100656.22
2022-10-23T15:26:23.151Z,100648.16
2022-10-23T15:28:57.923Z,100636.81
2022-10-23T15:31:42.966Z,100639.56
2022-10-23T15:34:11.822Z,100633.09
2022-10-23T15:36:38.571Z,100624.78
2022-10-23T15:39:09.862Z,100613.00
2022-10-23T15:41:38.594Z,100627.00
2022-10-23T15:44:06.180Z,100617.88
2022-10-23T15:46:33.376Z,100617.28
2022-10-23T15:48:59.970Z,100620.63
2022-10-23T15:51:26.757Z,100621.69
2022-10-23T15:53:53.305Z,100613.13
2022-10-23T15:56:19.870Z,100611.25
2022-10-23T15:58:46.325Z,100605.84
2022-10-23T16:01:12.997Z,100596.25
2022-10-23T16:03:39.615Z,100594.41
2022-10-23T16:06:08.839Z,100582.63
2022-10-23T16:08:35.950Z,100572.44
2022-10-23T16:11:03.545Z,100574.31
2022-10-23T16:13:30.013Z,100561.47
2022-10-23T16:15:56.476Z,100574.16
2022-10-23T16:18:23.466Z,100578.13
2022-10-23T16:20:55.081Z,100575.47
2022-10-23T16:23:21.731Z,100577.53
2022-10-23T16:25:48.237Z,100584.09
2022-10-23T16:28:14.681Z,100582.50
2022-10-23T16:30:42.351Z,100578.78
2022-10-23T16:33:09.288Z,100579.59
2022-10-23T16:35:36.672Z,100579.84
2022-10-23T16:38:03.640Z,100571.53
2022-10-23T16:40:30.199Z,100582.59
2022-10-23T16:42:57.812Z,100563.44
2022-10-23T16:45:24.313Z,100572.91
2022-10-23T16:47:50.826Z,100571.97
2022-10-23T16:50:17.665Z,100564.44
2022-10-23T16:52:44.470Z,100557.97
2022-10-23T16:55:11.268Z,100555.56
2022-10-23T16:57:37.735Z,100559.84
2022-10-23T17:00:05.765Z,100565.94
2022-10-23T17:02:32.643Z,100564.34
2022-10-23T17:04:59.510Z,100578.06
2022-10-23T17:07:25.947Z,100576.69
2022-10-23T17:09:52.542Z,100561.19
2022-10-23T17:12:19.013Z,100568.34
2022-10-23T17:14:45.418Z,100582.69
2022-10-23T17:17:11.915Z,100580.63
2022-10-23T17:19:45.502Z,100580.81
2022-10-23T17:22:13.324Z,100573.31
2022-10-23T17:24:41.269Z,100570.91
2022-10-23T17:27:08.269Z,100570.31
2022-10-23T17:29:35.172Z,100569.75
2022-10-23T17:32:01.665Z,100568.09
2022-10-23T17:34:28.149Z,100563.81
2022-10-23T17:36:55.338Z,100567.25
2022-10-23T17:39:25.446Z,100569.56
2022-10-23T17:41:52.679Z,100570.03
2022-10-23T17:44:19.709Z,100570.69
2022-10-23T17:46:46.231Z,100564.81
2022-10-23T17:49:12.761Z,100555.25
2022-10-23T17:51:39.519Z,100579.34
2022-10-23T17:54:08.305Z,100570.22
2022-10-23T17:56:37.603Z,100571.03
2022-10-23T17:59:13.991Z,100563.88
2022-10-23T18:01:42.746Z,100561.44
2022-10-23T18:04:09.790Z,100556.94
2022-10-23T18:06:45.302Z,100557.75
2022-10-23T18:09:12.969Z,100545.09
2022-10-23T18:11:45.366Z,100545.09
2022-10-23T18:14:14.988Z,100542.19
2022-10-23T18:16:42.225Z,100537.91
2022-10-23T18:19:09.103Z,100532.38
2022-10-23T18:21:36.467Z,100538.72
2022-10-23T18:24:03.738Z,100553.63
2022-10-23T18:26:32.244Z,100546.41
2022-10-23T18:28:59.560Z,100544.09
2022-10-23T18:31:30.166Z,100539.38
2022-10-23T18:33:58.386Z,100554.06
2022-10-23T18:36:28.640Z,100525.88
2022-10-23T18:41:28.066Z,100528.31
2022-10-23T18:43:55.016Z,100517.09
2022-10-23T18:46:22.146Z,100518.50
2022-10-23T18:48:50.838Z,100514.56
2022-10-23T18:51:23.834Z,100514.34
2022-10-23T18:53:50.935Z,100506.72
2022-10-23T18:56:23.593Z,100506.72
2022-10-23T18:58:56.149Z,100516.06
2022-10-23T19:01:24.051Z,100513.75
2022-10-23T19:03:50.686Z,100513.53
2022-10-23T19:06:17.329Z,100508.44
2022-10-23T19:08:44.317Z,100506.16
2022-10-23T19:11:12.140Z,100497.13
2022-10-23T19:13:40.371Z,100458.31
2022-10-23T19:16:28.516Z,100453.34
2022-10-23T19:18:59.114Z,100484.09
2022-10-23T19:21:31.336Z,100479.69
2022-10-23T19:24:04.809Z,100454.38
2022-10-23T19:26:34.353Z,100489.72
2022-10-23T19:29:01.146Z,100491.00
2022-10-23T19:31:27.696Z,100480.25
2022-10-23T19:33:54.229Z,100485.00
2022-10-23T19:36:23.541Z,100482.00
2022-10-23T19:38:50.591Z,100476.56
2022-10-23T19:41:18.319Z,100497.25
2022-10-23T19:43:45.221Z,100497.47
2022-10-23T19:46:12.303Z,100497.34
2022-10-23T19:48:44.285Z,100514.34
2022-10-23T19:51:12.971Z,100519.84
2022-10-23T19:53:41.247Z,100533.38
2022-10-23T19:56:09.690Z,100538.28
2022-10-23T19:58:36.307Z,100540.84
2022-10-23T20:01:15.761Z,100538.84
2022-10-23T20:03:45.463Z,100548.31
2022-10-23T20:06:13.969Z,100564.91
2022-10-23T20:08:41.350Z,100557.84
2022-10-23T20:11:09.507Z,100555.63
2022-10-23T20:13:36.223Z,100569.59
2022-10-23T20:16:02.713Z,100566.56
2022-10-23T20:18:29.240Z,100572.31
2022-10-23T20:20:55.821Z,100570.72
2022-10-23T20:23:22.385Z,100579.72
2022-10-23T20:25:48.887Z,100577.06
2022-10-23T20:28:15.532Z,100582.00
2022-10-23T20:30:42.670Z,100576.91
2022-10-23T20:33:09.433Z,100594.31
2022-10-23T20:35:41.345Z,100596.03
2022-10-23T20:38:08.350Z,100601.78
2022-10-23T20:40:35.203Z,100601.41
2022-10-23T20:43:01.715Z,100603.13
2022-10-23T20:45:28.232Z,100613.13
2022-10-23T20:47:54.755Z,100606.06
2022-10-23T20:50:23.853Z,100614.44
2022-10-23T20:52:50.942Z,100617.78
2022-10-23T20:55:18.164Z,100624.78
2022-10-23T20:57:44.932Z,100621.75
2022-10-23T21:00:12.201Z,100630.53
2022-10-23T21:02:38.785Z,100626.03
2022-10-23T21:05:05.837Z,100625.41
2022-10-23T21:07:32.333Z,100607.09
2022-10-23T21:09:58.894Z,100632.56
2022-10-23T21:12:25.474Z,100619.53
2022-10-23T21:14:53.552Z,100629.34
2022-10-23T21:17:20.428Z,100626.88
2022-10-23T21:19:47.148Z,100629.53
2022-10-23T21:22:13.696Z,100635.44
2022-10-23T21:24:40.241Z,100630.94
2022-10-23T21:27:06.800Z,100616.66
2022-10-23T21:29:33.374Z,100620.78
2022-10-23T21:32:03.466Z,100616.38
2022-10-23T21:34:30.929Z,100617.81
2022-10-23T21:37:14.231Z,100613.56
2022-10-23T21:39:42.948Z,100617.25
2022-10-23T21:42:09.818Z,100616.44
2022-10-23T21:44:36.341Z,100610.09
2022-10-23T21:47:02.843Z,100614.59
2022-10-23T21:49:29.373Z,100622.31
2022-10-23T21:51:55.905Z,100631.06
2022-10-23T21:54:22.802Z,100629.25
2022-10-23T21:56:51.740Z,100629.03
2022-10-23T21:59:20.882Z,100633.53
2022-10-23T22:01:48.569Z,100627.19
2022-10-23T22:04:17.424Z,100619.47
2022-10-23T22:06:45.271Z,100632.47
2022-10-23T22:09:14.578Z,100627.41
2022-10-23T22:11:41.925Z,100635.38
2022-10-23T22:14:08.540Z,100635.13
2022-10-23T22:16:35.040Z,100639.41
2022-10-23T22:19:01.630Z,100622.47
2022-10-23T22:21:29.755Z,100618.00
2022-10-23T22:23:57.072Z,100623.06
2022-10-23T22:26:45.526Z,100620.84
2022-10-23T22:29:18.722Z,100615.53
2022-10-23T22:31:49.604Z,100611.06
2022-10-23T22:34:47.765Z,100622.13
2022-10-23T22:37:12.433Z,100613.19
2022-10-23T22:39:40.067Z,100608.28
2022-10-23T22:42:07.037Z,100615.22
2022-10-23T22:44:33.542Z,100616.22
2022-10-23T22:47:00.115Z,100612.78
2022-10-23T22:49:26.669Z,100609.31
2022-10-23T22:51:53.218Z,100603.44
2022-10-23T22:54:19.681Z,100603.22
2022-10-23T22:56:46.166Z,100594.47
2022-10-23T22:59:12.692Z,100593.41
2022-10-23T23:01:45.887Z,100602.41
2022-10-23T23:04:36.844Z,100600.56
2022-10-23T23:07:04.504Z,100596.06
2022-10-23T23:09:31.105Z,100599.31
2022-10-23T23:11:57.823Z,100593.19
2022-10-23T23:14:24.614Z,100587.09
2022-10-23T23:16:52.730Z,100585.25
2022-10-23T23:19:19.393Z,100584.44
2022-10-23T23:21:45.874Z,100573.25
2022-10-23T23:24:12.398Z,100577.38
2022-10-23T23:26:39.073Z,100573.75
2022-10-23T23:29:05.690Z,100570.16
2022-10-23T23:31:32.100Z,100567.72
2022-10-23T23:33:58.616Z,100564.69
2022-10-23T23:36:27.448Z,100565.34
2022-10-23T23:38:55.498Z,100564.97
2022-10-23T23:41:22.344Z,100563.19
2022-10-23T23:43:49.482Z,100557.31
2022-10-23T23:46:16.994Z,100555.47
2022-10-23T23:48:47.780Z,100552.16
2022-10-23T23:51:16.596Z,100548.03
2022-10-23T23:53:43.575Z,100552.69
2022-10-23T23:56:10.108Z,100544.91
2022-10-23T23:58:36.625Z,100548.50
